sensor_id;sensor_type;location;lat;lon;timestamp;P1;durP1;ratioP1;P2;durP2;ratioP2
29026;SDS011;16120;48.608;9.092;2023-07-24T00:02:37;104.20;;;8.47;;
29026;SDS011;16120;48.608;9.092;2023-07-24T00:06:32;104.00;;;7.50;;
29026;SDS011;16120;48.608;9.092;2023-07-24T00:10:28;103.67;;;7.50;;
29026;SDS011;16120;48.608;9.092;2023-07-24T00:14:24;104.10;;;7.60;;
29026;SDS011;16120;48.608;9.092;2023-07-24T00:18:19;103.87;;;7.63;;
29026;SDS011;16120;48.608;9.092;2023-07-24T00:22:15;104.43;;;8.00;;
29026;SDS011;16120;48.608;9.092;2023-07-24T00:26:10;103.87;;;7.80;;
29026;SDS011;16120;48.608;9.092;2023-07-24T00:30:07;104.00;;;7.50;;
29026;SDS011;16120;48.608;9.092;2023-07-24T00:34:03;104.07;;;7.60;;
29026;SDS011;16120;48.608;9.092;2023-07-24T00:37:58;104.10;;;7.43;;
29026;SDS011;16120;48.608;9.092;2023-07-24T00:41:53;104.13;;;7.40;;
29026;SDS011;16120;48.608;9.092;2023-07-24T00:45:50;104.00;;;7.10;;
29026;SDS011;16120;48.608;9.092;2023-07-24T00:49:45;104.50;;;7.80;;
29026;SDS011;16120;48.608;9.092;2023-07-24T00:53:41;104.27;;;8.00;;
29026;SDS011;16120;48.608;9.092;2023-07-24T00:57:36;104.10;;;7.20;;
29026;SDS011;16120;48.608;9.092;2023-07-24T01:01:33;104.20;;;6.90;;
29026;SDS011;16120;48.608;9.092;2023-07-24T01:05:28;104.33;;;7.10;;
29026;SDS011;16120;48.608;9.092;2023-07-24T01:09:24;104.57;;;7.47;;
29026;SDS011;16120;48.608;9.092;2023-07-24T01:13:21;104.03;;;7.03;;
29026;SDS011;16120;48.608;9.092;2023-07-24T01:17:20;104.30;;;7.40;;
29026;SDS011;16120;48.608;9.092;2023-07-24T01:21:16;104.50;;;7.20;;
29026;SDS011;16120;48.608;9.092;2023-07-24T01:25:18;104.80;;;7.43;;
29026;SDS011;16120;48.608;9.092;2023-07-24T01:29:15;104.80;;;7.37;;
29026;SDS011;16120;48.608;9.092;2023-07-24T01:33:10;105.07;;;7.70;;
29026;SDS011;16120;48.608;9.092;2023-07-24T01:37:05;105.17;;;7.37;;
29026;SDS011;16120;48.608;9.092;2023-07-24T01:41:01;103.97;;;7.10;;
29026;SDS011;16120;48.608;9.092;2023-07-24T01:44:57;105.47;;;8.10;;
29026;SDS011;16120;48.608;9.092;2023-07-24T01:48:53;105.37;;;7.87;;
29026;SDS011;16120;48.608;9.092;2023-07-24T01:52:48;104.80;;;7.40;;
29026;SDS011;16120;48.608;9.092;2023-07-24T01:56:43;104.30;;;7.33;;
29026;SDS011;16120;48.608;9.092;2023-07-24T02:00:40;104.87;;;7.20;;
29026;SDS011;16120;48.608;9.092;2023-07-24T02:04:35;105.27;;;7.47;;
29026;SDS011;16120;48.608;9.092;2023-07-24T02:08:30;104.77;;;7.07;;
29026;SDS011;16120;48.608;9.092;2023-07-24T02:12:25;105.00;;;7.37;;
29026;SDS011;16120;48.608;9.092;2023-07-24T02:16:22;105.57;;;7.20;;
29026;SDS011;16120;48.608;9.092;2023-07-24T02:20:17;104.47;;;7.50;;
29026;SDS011;16120;48.608;9.092;2023-07-24T02:24:12;105.20;;;7.40;;
29026;SDS011;16120;48.608;9.092;2023-07-24T02:28:07;105.27;;;7.37;;
29026;SDS011;16120;48.608;9.092;2023-07-24T02:32:04;104.97;;;7.45;;
29026;SDS011;16120;48.608;9.092;2023-07-24T02:36:00;105.20;;;7.53;;
29026;SDS011;16120;48.608;9.092;2023-07-24T02:39:55;105.67;;;8.30;;
29026;SDS011;16120;48.608;9.092;2023-07-24T02:43:50;105.47;;;7.43;;
29026;SDS011;16120;48.608;9.092;2023-07-24T02:47:47;105.17;;;7.50;;
29026;SDS011;16120;48.608;9.092;2023-07-24T02:51:42;105.90;;;7.50;;
29026;SDS011;16120;48.608;9.092;2023-07-24T02:55:41;104.97;;;7.80;;
29026;SDS011;16120;48.608;9.092;2023-07-24T02:59:36;105.47;;;7.27;;
29026;SDS011;16120;48.608;9.092;2023-07-24T03:03:33;105.60;;;7.23;;
29026;SDS011;16120;48.608;9.092;2023-07-24T03:07:28;105.50;;;7.37;;
29026;SDS011;16120;48.608;9.092;2023-07-24T03:11:23;105.37;;;7.60;;
29026;SDS011;16120;48.608;9.092;2023-07-24T03:15:19;106.07;;;7.47;;
29026;SDS011;16120;48.608;9.092;2023-07-24T03:19:15;105.83;;;7.23;;
29026;SDS011;16120;48.608;9.092;2023-07-24T03:23:11;105.43;;;7.40;;
29026;SDS011;16120;48.608;9.092;2023-07-24T03:27:06;105.77;;;7.40;;
29026;SDS011;16120;48.608;9.092;2023-07-24T03:31:01;104.57;;;7.38;;
29026;SDS011;16120;48.608;9.092;2023-07-24T03:34:58;105.97;;;7.30;;
29026;SDS011;16120;48.608;9.092;2023-07-24T03:38:53;104.77;;;7.20;;
29026;SDS011;16120;48.608;9.092;2023-07-24T03:42:48;105.57;;;7.13;;
29026;SDS011;16120;48.608;9.092;2023-07-24T03:46:43;106.37;;;7.80;;
29026;SDS011;16120;48.608;9.092;2023-07-24T03:50:41;105.77;;;7.57;;
29026;SDS011;16120;48.608;9.092;2023-07-24T03:54:36;105.30;;;7.40;;
29026;SDS011;16120;48.608;9.092;2023-07-24T03:58:31;105.53;;;7.20;;
29026;SDS011;16120;48.608;9.092;2023-07-24T04:02:26;106.27;;;7.50;;
29026;SDS011;16120;48.608;9.092;2023-07-24T04:06:23;104.77;;;7.47;;
29026;SDS011;16120;48.608;9.092;2023-07-24T04:10:18;106.27;;;7.23;;
29026;SDS011;16120;48.608;9.092;2023-07-24T04:14:13;105.77;;;7.20;;
29026;SDS011;16120;48.608;9.092;2023-07-24T04:18:08;105.37;;;7.20;;
29026;SDS011;16120;48.608;9.092;2023-07-24T04:22:05;105.00;;;6.97;;
29026;SDS011;16120;48.608;9.092;2023-07-24T04:26:00;105.77;;;7.43;;
29026;SDS011;16120;48.608;9.092;2023-07-24T04:29:55;104.90;;;6.93;;
29026;SDS011;16120;48.608;9.092;2023-07-24T04:33:51;105.27;;;7.20;;
29026;SDS011;16120;48.608;9.092;2023-07-24T04:37:47;105.57;;;7.10;;
29026;SDS011;16120;48.608;9.092;2023-07-24T04:41:42;105.57;;;8.07;;
29026;SDS011;16120;48.608;9.092;2023-07-24T04:45:38;105.60;;;7.50;;
29026;SDS011;16120;48.608;9.092;2023-07-24T04:49:33;104.73;;;6.90;;
29026;SDS011;16120;48.608;9.092;2023-07-24T04:53:29;105.10;;;7.00;;
29026;SDS011;16120;48.608;9.092;2023-07-24T04:57:24;104.60;;;7.37;;
29026;SDS011;16120;48.608;9.092;2023-07-24T05:01:20;105.47;;;7.30;;
29026;SDS011;16120;48.608;9.092;2023-07-24T05:05:15;105.33;;;7.10;;
29026;SDS011;16120;48.608;9.092;2023-07-24T05:09:11;104.80;;;7.30;;
29026;SDS011;16120;48.608;9.092;2023-07-24T05:13:07;105.40;;;7.13;;
29026;SDS011;16120;48.608;9.092;2023-07-24T05:17:02;104.07;;;7.30;;
29026;SDS011;16120;48.608;9.092;2023-07-24T05:20:57;104.97;;;7.17;;
29026;SDS011;16120;48.608;9.092;2023-07-24T05:24:54;104.83;;;7.33;;
29026;SDS011;16120;48.608;9.092;2023-07-24T05:28:49;105.10;;;7.30;;
29026;SDS011;16120;48.608;9.092;2023-07-24T05:32:44;104.90;;;7.27;;
29026;SDS011;16120;48.608;9.092;2023-07-24T05:36:40;104.40;;;7.40;;
29026;SDS011;16120;48.608;9.092;2023-07-24T05:40:36;105.20;;;7.40;;
29026;SDS011;16120;48.608;9.092;2023-07-24T05:44:34;104.80;;;7.17;;
29026;SDS011;16120;48.608;9.092;2023-07-24T05:48:29;105.07;;;7.40;;
29026;SDS011;16120;48.608;9.092;2023-07-24T05:52:24;104.87;;;7.00;;
29026;SDS011;16120;48.608;9.092;2023-07-24T05:56:21;104.00;;;7.20;;
29026;SDS011;16120;48.608;9.092;2023-07-24T06:00:17;104.97;;;7.43;;
29026;SDS011;16120;48.608;9.092;2023-07-24T06:04:12;104.57;;;6.70;;
29026;SDS011;16120;48.608;9.092;2023-07-24T06:08:07;104.67;;;6.93;;
29026;SDS011;16120;48.608;9.092;2023-07-24T06:12:04;104.27;;;6.83;;
29026;SDS011;16120;48.608;9.092;2023-07-24T06:15:59;105.07;;;7.53;;
29026;SDS011;16120;48.608;9.092;2023-07-24T06:19:55;104.40;;;7.00;;
29026;SDS011;16120;48.608;9.092;2023-07-24T06:23:50;104.37;;;7.90;;
29026;SDS011;16120;48.608;9.092;2023-07-24T06:27:46;104.30;;;6.57;;
29026;SDS011;16120;48.608;9.092;2023-07-24T06:31:42;104.07;;;6.73;;
29026;SDS011;16120;48.608;9.092;2023-07-24T06:35:37;103.60;;;6.77;;
29026;SDS011;16120;48.608;9.092;2023-07-24T06:39:32;103.50;;;6.83;;
29026;SDS011;16120;48.608;9.092;2023-07-24T06:43:29;103.87;;;6.87;;
29026;SDS011;16120;48.608;9.092;2023-07-24T06:47:24;103.53;;;7.00;;
29026;SDS011;16120;48.608;9.092;2023-07-24T06:51:20;103.57;;;7.03;;
29026;SDS011;16120;48.608;9.092;2023-07-24T06:55:15;103.47;;;7.07;;
29026;SDS011;16120;48.608;9.092;2023-07-24T06:59:12;103.10;;;7.50;;
29026;SDS011;16120;48.608;9.092;2023-07-24T07:03:07;103.37;;;7.10;;
29026;SDS011;16120;48.608;9.092;2023-07-24T07:07:02;102.97;;;6.47;;
29026;SDS011;16120;48.608;9.092;2023-07-24T07:10:58;102.87;;;7.03;;
29026;SDS011;16120;48.608;9.092;2023-07-24T07:14:54;102.63;;;6.70;;
29026;SDS011;16120;48.608;9.092;2023-07-24T07:18:50;102.30;;;6.73;;
29026;SDS011;16120;48.608;9.092;2023-07-24T07:22:45;102.77;;;6.97;;
29026;SDS011;16120;48.608;9.092;2023-07-24T07:26:40;102.60;;;6.70;;
29026;SDS011;16120;48.608;9.092;2023-07-24T07:30:37;102.13;;;7.03;;
29026;SDS011;16120;48.608;9.092;2023-07-24T07:34:32;102.17;;;7.03;;
29026;SDS011;16120;48.608;9.092;2023-07-24T07:38:27;102.10;;;6.80;;
29026;SDS011;16120;48.608;9.092;2023-07-24T07:42:22;102.17;;;7.30;;
29026;SDS011;16120;48.608;9.092;2023-07-24T07:46:19;102.33;;;7.77;;
29026;SDS011;16120;48.608;9.092;2023-07-24T07:50:14;102.03;;;7.07;;
29026;SDS011;16120;48.608;9.092;2023-07-24T07:54:09;101.72;;;6.65;;
29026;SDS011;16120;48.608;9.092;2023-07-24T07:58:05;101.80;;;6.43;;
29026;SDS011;16120;48.608;9.092;2023-07-24T08:02:01;101.37;;;7.00;;
29026;SDS011;16120;48.608;9.092;2023-07-24T08:05:56;102.10;;;6.87;;
29026;SDS011;16120;48.608;9.092;2023-07-24T08:09:52;101.77;;;6.60;;
29026;SDS011;16120;48.608;9.092;2023-07-24T08:13:50;101.77;;;7.00;;
29026;SDS011;16120;48.608;9.092;2023-07-24T08:17:46;101.70;;;7.20;;
29026;SDS011;16120;48.608;9.092;2023-07-24T08:21:41;101.37;;;6.50;;
29026;SDS011;16120;48.608;9.092;2023-07-24T08:25:37;102.10;;;6.83;;
29026;SDS011;16120;48.608;9.092;2023-07-24T08:29:32;101.77;;;6.97;;
29026;SDS011;16120;48.608;9.092;2023-07-24T08:33:29;101.70;;;6.80;;
29026;SDS011;16120;48.608;9.092;2023-07-24T08:37:24;101.70;;;6.93;;
29026;SDS011;16120;48.608;9.092;2023-07-24T08:41:19;101.97;;;6.93;;
29026;SDS011;16120;48.608;9.092;2023-07-24T08:45:14;101.97;;;6.87;;
29026;SDS011;16120;48.608;9.092;2023-07-24T08:49:12;101.67;;;7.00;;
29026;SDS011;16120;48.608;9.092;2023-07-24T08:53:07;101.60;;;6.97;;
29026;SDS011;16120;48.608;9.092;2023-07-24T08:57:03;101.70;;;6.90;;
29026;SDS011;16120;48.608;9.092;2023-07-24T09:00:59;101.27;;;7.33;;
29026;SDS011;16120;48.608;9.092;2023-07-24T09:04:56;101.70;;;7.10;;
29026;SDS011;16120;48.608;9.092;2023-07-24T09:08:53;101.53;;;7.07;;
29026;SDS011;16120;48.608;9.092;2023-07-24T09:12:48;101.27;;;7.17;;
29026;SDS011;16120;48.608;9.092;2023-07-24T09:16:44;101.17;;;7.33;;
29026;SDS011;16120;48.608;9.092;2023-07-24T09:20:41;100.78;;;6.47;;
29026;SDS011;16120;48.608;9.092;2023-07-24T09:24:36;101.30;;;6.83;;
29026;SDS011;16120;48.608;9.092;2023-07-24T09:28:31;101.20;;;6.73;;
29026;SDS011;16120;48.608;9.092;2023-07-24T09:32:27;101.53;;;6.87;;
29026;SDS011;16120;48.608;9.092;2023-07-24T09:36:24;101.17;;;6.40;;
29026;SDS011;16120;48.608;9.092;2023-07-24T09:40:19;101.47;;;6.63;;
29026;SDS011;16120;48.608;9.092;2023-07-24T09:44:14;101.10;;;6.30;;
29026;SDS011;16120;48.608;9.092;2023-07-24T09:48:10;101.33;;;7.20;;
29026;SDS011;16120;48.608;9.092;2023-07-24T09:52:08;101.30;;;6.97;;
29026;SDS011;16120;48.608;9.092;2023-07-24T09:56:05;100.87;;;6.00;;
29026;SDS011;16120;48.608;9.092;2023-07-24T10:00:00;101.20;;;6.20;;
29026;SDS011;16120;48.608;9.092;2023-07-24T10:03:55;101.70;;;6.50;;
29026;SDS011;16120;48.608;9.092;2023-07-24T10:07:52;101.40;;;6.50;;
29026;SDS011;16120;48.608;9.092;2023-07-24T10:11:47;101.07;;;6.40;;
29026;SDS011;16120;48.608;9.092;2023-07-24T10:15:43;101.38;;;7.25;;
29026;SDS011;16120;48.608;9.092;2023-07-24T10:19:39;101.47;;;6.33;;
29026;SDS011;16120;48.608;9.092;2023-07-24T10:23:36;101.70;;;7.07;;
29026;SDS011;16120;48.608;9.092;2023-07-24T10:27:35;101.37;;;6.70;;
29026;SDS011;16120;48.608;9.092;2023-07-24T10:39:41;101.73;;;6.60;;
29026;SDS011;16120;48.608;9.092;2023-07-24T10:43:40;102.37;;;7.60;;
29026;SDS011;16120;48.608;9.092;2023-07-24T10:47:35;101.70;;;6.60;;
29026;SDS011;16120;48.608;9.092;2023-07-24T10:51:30;102.00;;;6.90;;
29026;SDS011;16120;48.608;9.092;2023-07-24T10:55:29;102.70;;;7.60;;
29026;SDS011;16120;48.608;9.092;2023-07-24T10:59:35;102.23;;;7.03;;
29026;SDS011;16120;48.608;9.092;2023-07-24T11:03:30;102.37;;;7.63;;
29026;SDS011;16120;48.608;9.092;2023-07-24T11:07:25;102.60;;;6.90;;
29026;SDS011;16120;48.608;9.092;2023-07-24T11:11:22;102.57;;;7.10;;
29026;SDS011;16120;48.608;9.092;2023-07-24T11:15:25;102.47;;;6.90;;
29026;SDS011;16120;48.608;9.092;2023-07-24T11:19:23;102.40;;;7.13;;
29026;SDS011;16120;48.608;9.092;2023-07-24T11:23:19;102.37;;;7.20;;
29026;SDS011;16120;48.608;9.092;2023-07-24T11:27:16;102.50;;;7.87;;
29026;SDS011;16120;48.608;9.092;2023-07-24T11:31:11;101.77;;;6.90;;
29026;SDS011;16120;48.608;9.092;2023-07-24T11:35:07;100.77;;;7.60;;
29026;SDS011;16120;48.608;9.092;2023-07-24T11:39:05;101.30;;;7.50;;
29026;SDS011;16120;48.608;9.092;2023-07-24T11:43:02;102.20;;;7.70;;
29026;SDS011;16120;48.608;9.092;2023-07-24T11:47:00;101.87;;;7.00;;
29026;SDS011;16120;48.608;9.092;2023-07-24T11:50:56;102.07;;;7.07;;
29026;SDS011;16120;48.608;9.092;2023-07-24T11:54:58;102.37;;;7.27;;
29026;SDS011;16120;48.608;9.092;2023-07-24T11:58:54;101.67;;;7.27;;
29026;SDS011;16120;48.608;9.092;2023-07-24T12:02:50;101.07;;;7.10;;
29026;SDS011;16120;48.608;9.092;2023-07-24T12:06:45;101.50;;;7.93;;
29026;SDS011;16120;48.608;9.092;2023-07-24T12:10:41;101.40;;;8.67;;
29026;SDS011;16120;48.608;9.092;2023-07-24T12:14:38;100.47;;;6.73;;
29026;SDS011;16120;48.608;9.092;2023-07-24T12:18:33;100.67;;;7.00;;
29026;SDS011;16120;48.608;9.092;2023-07-24T12:22:28;101.17;;;6.97;;
29026;SDS011;16120;48.608;9.092;2023-07-24T12:26:24;100.70;;;7.33;;
29026;SDS011;16120;48.608;9.092;2023-07-24T12:30:20;100.60;;;7.20;;
29026;SDS011;16120;48.608;9.092;2023-07-24T12:34:16;100.20;;;6.60;;
29026;SDS011;16120;48.608;9.092;2023-07-24T12:38:11;99.67;;;6.47;;
29026;SDS011;16120;48.608;9.092;2023-07-24T12:42:06;99.57;;;6.30;;
29026;SDS011;16120;48.608;9.092;2023-07-24T12:46:03;100.20;;;6.60;;
29026;SDS011;16120;48.608;9.092;2023-07-24T12:50:02;99.87;;;6.67;;
29026;SDS011;16120;48.608;9.092;2023-07-24T12:53:57;99.80;;;6.60;;
29026;SDS011;16120;48.608;9.092;2023-07-24T12:57:53;99.57;;;6.60;;
29026;SDS011;16120;48.608;9.092;2023-07-24T13:01:49;99.33;;;6.40;;
29026;SDS011;16120;48.608;9.092;2023-07-24T13:05:45;99.60;;;6.60;;
29026;SDS011;16120;48.608;9.092;2023-07-24T13:09:40;99.60;;;6.40;;
29026;SDS011;16120;48.608;9.092;2023-07-24T13:13:35;98.10;;;6.47;;
29026;SDS011;16120;48.608;9.092;2023-07-24T13:17:34;99.13;;;6.33;;
29026;SDS011;16120;48.608;9.092;2023-07-24T13:21:30;99.97;;;6.37;;
29026;SDS011;16120;48.608;9.092;2023-07-24T13:25:25;99.60;;;6.10;;
29026;SDS011;16120;48.608;9.092;2023-07-24T13:29:23;98.97;;;6.10;;
29026;SDS011;16120;48.608;9.092;2023-07-24T13:33:20;98.57;;;6.17;;
29026;SDS011;16120;48.608;9.092;2023-07-24T13:37:15;99.30;;;6.20;;
29026;SDS011;16120;48.608;9.092;2023-07-24T13:41:10;99.00;;;6.40;;
29026;SDS011;16120;48.608;9.092;2023-07-24T13:45:06;99.40;;;6.33;;
29026;SDS011;16120;48.608;9.092;2023-07-24T13:49:03;99.20;;;5.90;;
29026;SDS011;16120;48.608;9.092;2023-07-24T13:52:58;98.20;;;5.97;;
29026;SDS011;16120;48.608;9.092;2023-07-24T13:56:54;99.20;;;6.40;;
29026;SDS011;16120;48.608;9.092;2023-07-24T14:00:49;97.70;;;5.90;;
29026;SDS011;16120;48.608;9.092;2023-07-24T14:04:45;98.13;;;5.93;;
29026;SDS011;16120;48.608;9.092;2023-07-24T14:08:41;99.07;;;6.43;;
29026;SDS011;16120;48.608;9.092;2023-07-24T14:12:36;99.20;;;6.00;;
29026;SDS011;16120;48.608;9.092;2023-07-24T14:16:31;99.17;;;5.90;;
29026;SDS011;16120;48.608;9.092;2023-07-24T14:20:30;99.40;;;5.93;;
29026;SDS011;16120;48.608;9.092;2023-07-24T14:24:25;99.30;;;5.97;;
29026;SDS011;16120;48.608;9.092;2023-07-24T14:28:20;98.57;;;6.03;;
29026;SDS011;16120;48.608;9.092;2023-07-24T14:32:15;98.37;;;6.40;;
29026;SDS011;16120;48.608;9.092;2023-07-24T14:36:12;98.73;;;6.33;;
29026;SDS011;16120;48.608;9.092;2023-07-24T14:40:09;98.17;;;6.30;;
29026;SDS011;16120;48.608;9.092;2023-07-24T14:44:05;98.87;;;6.00;;
29026;SDS011;16120;48.608;9.092;2023-07-24T14:48:01;98.53;;;5.97;;
29026;SDS011;16120;48.608;9.092;2023-07-24T14:51:57;98.63;;;6.00;;
29026;SDS011;16120;48.608;9.092;2023-07-24T14:55:52;98.60;;;5.90;;
29026;SDS011;16120;48.608;9.092;2023-07-24T14:59:49;98.50;;;5.87;;
29026;SDS011;16120;48.608;9.092;2023-07-24T15:03:44;99.60;;;6.07;;
29026;SDS011;16120;48.608;9.092;2023-07-24T15:07:41;98.10;;;5.80;;
29026;SDS011;16120;48.608;9.092;2023-07-24T15:11:36;98.47;;;6.20;;
29026;SDS011;16120;48.608;9.092;2023-07-24T15:15:32;98.77;;;5.83;;
29026;SDS011;16120;48.608;9.092;2023-07-24T15:19:27;99.03;;;5.83;;
29026;SDS011;16120;48.608;9.092;2023-07-24T15:23:27;99.30;;;5.90;;
29026;SDS011;16120;48.608;9.092;2023-07-24T15:27:22;98.43;;;5.97;;
29026;SDS011;16120;48.608;9.092;2023-07-24T15:31:17;98.30;;;6.00;;
29026;SDS011;16120;48.608;9.092;2023-07-24T15:35:12;98.67;;;6.30;;
29026;SDS011;16120;48.608;9.092;2023-07-24T15:39:09;100.17;;;6.03;;
29026;SDS011;16120;48.608;9.092;2023-07-24T15:43:06;99.97;;;5.83;;
29026;SDS011;16120;48.608;9.092;2023-07-24T15:47:01;100.20;;;6.17;;
29026;SDS011;16120;48.608;9.092;2023-07-24T15:50:56;99.47;;;6.37;;
29026;SDS011;16120;48.608;9.092;2023-07-24T15:54:53;99.33;;;6.00;;
29026;SDS011;16120;48.608;9.092;2023-07-24T15:58:48;100.30;;;6.20;;
29026;SDS011;16120;48.608;9.092;2023-07-24T16:02:43;99.47;;;6.30;;
29026;SDS011;16120;48.608;9.092;2023-07-24T16:06:39;100.10;;;6.20;;
29026;SDS011;16120;48.608;9.092;2023-07-24T16:10:35;99.57;;;6.13;;
29026;SDS011;16120;48.608;9.092;2023-07-24T16:14:31;99.17;;;6.17;;
29026;SDS011;16120;48.608;9.092;2023-07-24T16:18:26;98.50;;;6.20;;
29026;SDS011;16120;48.608;9.092;2023-07-24T16:22:21;99.28;;;6.30;;
29026;SDS011;16120;48.608;9.092;2023-07-24T16:26:19;99.70;;;6.13;;
29026;SDS011;16120;48.608;9.092;2023-07-24T16:30:15;99.80;;;6.03;;
29026;SDS011;16120;48.608;9.092;2023-07-24T16:34:11;99.03;;;6.30;;
29026;SDS011;16120;48.608;9.092;2023-07-24T16:38:06;99.90;;;6.63;;
29026;SDS011;16120;48.608;9.092;2023-07-24T16:42:03;99.20;;;6.10;;
29026;SDS011;16120;48.608;9.092;2023-07-24T16:46:02;99.10;;;6.00;;
29026;SDS011;16120;48.608;9.092;2023-07-24T16:50:03;99.73;;;5.80;;
29026;SDS011;16120;48.608;9.092;2023-07-24T16:53:59;99.40;;;5.90;;
29026;SDS011;16120;48.608;9.092;2023-07-24T16:57:56;99.47;;;5.90;;
29026;SDS011;16120;48.608;9.092;2023-07-24T17:01:51;98.00;;;6.00;;
29026;SDS011;16120;48.608;9.092;2023-07-24T17:05:47;99.07;;;5.93;;
29026;SDS011;16120;48.608;9.092;2023-07-24T17:09:42;99.90;;;6.00;;
29026;SDS011;16120;48.608;9.092;2023-07-24T17:13:39;99.90;;;6.10;;
29026;SDS011;16120;48.608;9.092;2023-07-24T17:17:35;99.87;;;6.60;;
29026;SDS011;16120;48.608;9.092;2023-07-24T17:21:30;100.00;;;6.20;;
29026;SDS011;16120;48.608;9.092;2023-07-24T17:25:25;99.10;;;6.00;;
29026;SDS011;16120;48.608;9.092;2023-07-24T17:29:22;99.77;;;6.20;;
29026;SDS011;16120;48.608;9.092;2023-07-24T17:33:17;98.70;;;6.00;;
29026;SDS011;16120;48.608;9.092;2023-07-24T17:37:12;100.70;;;6.07;;
29026;SDS011;16120;48.608;9.092;2023-07-24T17:41:08;100.30;;;6.03;;
29026;SDS011;16120;48.608;9.092;2023-07-24T17:45:12;99.47;;;6.03;;
29026;SDS011;16120;48.608;9.092;2023-07-24T17:49:08;100.20;;;5.93;;
29026;SDS011;16120;48.608;9.092;2023-07-24T17:53:03;100.03;;;6.47;;
29026;SDS011;16120;48.608;9.092;2023-07-24T17:56:58;100.67;;;6.30;;
29026;SDS011;16120;48.608;9.092;2023-07-24T18:00:55;99.97;;;6.40;;
29026;SDS011;16120;48.608;9.092;2023-07-24T18:04:50;100.60;;;6.30;;
29026;SDS011;16120;48.608;9.092;2023-07-24T18:08:45;100.30;;;6.10;;
29026;SDS011;16120;48.608;9.092;2023-07-24T18:12:40;101.30;;;6.20;;
29026;SDS011;16120;48.608;9.092;2023-07-24T18:16:37;100.97;;;6.73;;
29026;SDS011;16120;48.608;9.092;2023-07-24T18:20:32;100.60;;;6.00;;
29026;SDS011;16120;48.608;9.092;2023-07-24T18:24:27;100.97;;;6.00;;
29026;SDS011;16120;48.608;9.092;2023-07-24T18:28:25;100.70;;;6.57;;
29026;SDS011;16120;48.608;9.092;2023-07-24T18:32:22;100.93;;;6.70;;
29026;SDS011;16120;48.608;9.092;2023-07-24T18:36:17;100.57;;;6.40;;
29026;SDS011;16120;48.608;9.092;2023-07-24T18:40:21;100.67;;;6.10;;
29026;SDS011;16120;48.608;9.092;2023-07-24T18:44:16;100.80;;;6.70;;
29026;SDS011;16120;48.608;9.092;2023-07-24T18:48:13;101.27;;;6.73;;
29026;SDS011;16120;48.608;9.092;2023-07-24T18:52:08;100.67;;;6.20;;
29026;SDS011;16120;48.608;9.092;2023-07-24T18:56:04;101.40;;;6.10;;
29026;SDS011;16120;48.608;9.092;2023-07-24T18:59:59;101.07;;;6.70;;
29026;SDS011;16120;48.608;9.092;2023-07-24T19:03:55;101.25;;;6.40;;
29026;SDS011;16120;48.608;9.092;2023-07-24T19:07:51;101.17;;;6.53;;
29026;SDS011;16120;48.608;9.092;2023-07-24T19:24:02;101.90;;;7.07;;
29026;SDS011;16120;48.608;9.092;2023-07-24T19:27:58;101.77;;;7.30;;
29026;SDS011;16120;48.608;9.092;2023-07-24T19:31:53;101.90;;;7.43;;
29026;SDS011;16120;48.608;9.092;2023-07-24T19:35:48;101.87;;;6.30;;
29026;SDS011;16120;48.608;9.092;2023-07-24T19:39:45;101.87;;;6.40;;
29026;SDS011;16120;48.608;9.092;2023-07-24T19:43:40;101.97;;;7.30;;
29026;SDS011;16120;48.608;9.092;2023-07-24T19:47:35;102.37;;;6.40;;
29026;SDS011;16120;48.608;9.092;2023-07-24T19:51:30;101.97;;;6.40;;
29026;SDS011;16120;48.608;9.092;2023-07-24T19:55:27;102.60;;;6.73;;
29026;SDS011;16120;48.608;9.092;2023-07-24T19:59:22;102.57;;;7.20;;
29026;SDS011;16120;48.608;9.092;2023-07-24T20:03:18;102.77;;;6.73;;
29026;SDS011;16120;48.608;9.092;2023-07-24T20:07:13;102.73;;;6.40;;
29026;SDS011;16120;48.608;9.092;2023-07-24T20:11:10;102.97;;;6.80;;
29026;SDS011;16120;48.608;9.092;2023-07-24T20:15:05;103.47;;;6.87;;
29026;SDS011;16120;48.608;9.092;2023-07-24T20:19:01;103.37;;;6.93;;
29026;SDS011;16120;48.608;9.092;2023-07-24T20:22:56;103.47;;;7.03;;
29026;SDS011;16120;48.608;9.092;2023-07-24T20:26:53;103.60;;;6.67;;
29026;SDS011;16120;48.608;9.092;2023-07-24T20:30:48;103.97;;;7.00;;
29026;SDS011;16120;48.608;9.092;2023-07-24T20:34:43;103.67;;;6.60;;
29026;SDS011;16120;48.608;9.092;2023-07-24T20:38:38;103.70;;;6.70;;
29026;SDS011;16120;48.608;9.092;2023-07-24T20:42:35;103.82;;;6.90;;
29026;SDS011;16120;48.608;9.092;2023-07-24T20:46:30;104.07;;;6.67;;
29026;SDS011;16120;48.608;9.092;2023-07-24T20:50:25;104.37;;;7.40;;
29026;SDS011;16120;48.608;9.092;2023-07-24T20:54:21;104.67;;;7.70;;
29026;SDS011;16120;48.608;9.092;2023-07-24T20:58:17;103.97;;;6.77;;
29026;SDS011;16120;48.608;9.092;2023-07-24T21:02:12;104.33;;;6.63;;
29026;SDS011;16120;48.608;9.092;2023-07-24T21:06:08;104.38;;;6.47;;
29026;SDS011;16120;48.608;9.092;2023-07-24T21:10:03;104.67;;;7.10;;
29026;SDS011;16120;48.608;9.092;2023-07-24T21:14:00;104.27;;;7.07;;
29026;SDS011;16120;48.608;9.092;2023-07-24T21:17:55;104.57;;;6.83;;
29026;SDS011;16120;48.608;9.092;2023-07-24T21:21:50;104.63;;;7.18;;
29026;SDS011;16120;48.608;9.092;2023-07-24T21:25:50;105.20;;;7.30;;
29026;SDS011;16120;48.608;9.092;2023-07-24T21:29:47;105.37;;;7.10;;
29026;SDS011;16120;48.608;9.092;2023-07-24T21:33:44;105.27;;;7.33;;
29026;SDS011;16120;48.608;9.092;2023-07-24T21:37:39;105.53;;;7.17;;
29026;SDS011;16120;48.608;9.092;2023-07-24T21:41:34;104.83;;;6.83;;
29026;SDS011;16120;48.608;9.092;2023-07-24T21:45:31;104.47;;;7.23;;
29026;SDS011;16120;48.608;9.092;2023-07-24T21:49:26;105.57;;;6.83;;
29026;SDS011;16120;48.608;9.092;2023-07-24T21:53:21;105.37;;;7.30;;
29026;SDS011;16120;48.608;9.092;2023-07-24T21:57:17;104.90;;;7.10;;
29026;SDS011;16120;48.608;9.092;2023-07-24T22:01:13;105.00;;;6.97;;
29026;SDS011;16120;48.608;9.092;2023-07-24T22:05:08;105.77;;;7.57;;
29026;SDS011;16120;48.608;9.092;2023-07-24T22:09:03;106.07;;;7.10;;
29026;SDS011;16120;48.608;9.092;2023-07-24T22:12:59;106.03;;;7.37;;
29026;SDS011;16120;48.608;9.092;2023-07-24T22:16:55;105.40;;;7.80;;
29026;SDS011;16120;48.608;9.092;2023-07-24T22:20:50;105.97;;;7.37;;
29026;SDS011;16120;48.608;9.092;2023-07-24T22:24:46;105.87;;;7.30;;
29026;SDS011;16120;48.608;9.092;2023-07-24T22:28:41;105.23;;;7.20;;
29026;SDS011;16120;48.608;9.092;2023-07-24T22:32:37;106.30;;;7.20;;
29026;SDS011;16120;48.608;9.092;2023-07-24T22:36:33;106.37;;;7.70;;
29026;SDS011;16120;48.608;9.092;2023-07-24T22:40:28;105.53;;;7.30;;
29026;SDS011;16120;48.608;9.092;2023-07-24T22:44:23;104.77;;;7.43;;
29026;SDS011;16120;48.608;9.092;2023-07-24T22:48:20;106.27;;;7.50;;
29026;SDS011;16120;48.608;9.092;2023-07-24T22:52:15;106.20;;;7.67;;
29026;SDS011;16120;48.608;9.092;2023-07-24T22:56:10;106.37;;;7.60;;
29026;SDS011;16120;48.608;9.092;2023-07-24T23:00:05;105.70;;;7.33;;
29026;SDS011;16120;48.608;9.092;2023-07-24T23:04:02;105.90;;;7.23;;
29026;SDS011;16120;48.608;9.092;2023-07-24T23:07:58;106.60;;;7.23;;
29026;SDS011;16120;48.608;9.092;2023-07-24T23:11:53;106.30;;;7.47;;
29026;SDS011;16120;48.608;9.092;2023-07-24T23:15:48;106.75;;;7.53;;
29026;SDS011;16120;48.608;9.092;2023-07-24T23:19:45;106.47;;;7.70;;
29026;SDS011;16120;48.608;9.092;2023-07-24T23:23:40;106.80;;;7.23;;